Time;durP1;ratioP1;P1;durP2;ratioP2;P2;SDS_P1;SDS_P2;PMS_P1;PMS_P2;Temp;Humidity;BMP_temperature;BMP_pressure;BME280_temperature;BME280_humidity;BME280_pressure;Samples;Min_cycle;Max_cycle;Signal;HPM_P1;HPM_P2
2023/07/15 00:01:23;;;;;;;;;;;;;;;20.83;57.98;100324.69;5028338;28;1204;-86
2023/07/15 00:03:49;;;;;;;;;;;;;;;20.86;57.68;100319.00;5025131;28;1212;-86
2023/07/15 00:06:17;;;;;;;;;;;;;;;20.88;57.48;100319.63;5022847;28;1890;-86
2023/07/15 00:08:44;;;;;;;;;;;;;;;20.91;56.75;100316.56;5044691;28;1166;-85
2023/07/15 00:11:41;;;;;;;;;;;;;;;20.90;56.40;100314.94;5026190;28;1431;-85
2023/07/15 00:14:46;;;;;;;;;;;;;;;20.91;56.93;100313.94;5025947;28;1721;-86
2023/07/15 00:17:12;;;;;;;;;;;;;;;20.89;56.59;100314.16;5016301;28;1435;-85
2023/07/15 00:19:46;;;;;;;;;;;;;;;20.89;55.59;100305.44;5027383;28;1286;-86
2023/07/15 00:22:18;;;;;;;;;;;;;;;20.88;56.42;100309.09;5026081;28;1349;-87
2023/07/15 00:24:49;;;;;;;;;;;;;;;20.86;56.48;100305.81;5051369;28;1905;-86
2023/07/15 00:27:17;;;;;;;;;;;;;;;20.87;56.36;100304.81;5046821;28;1140;-86
2023/07/15 00:29:42;;;;;;;;;;;;;;;20.86;55.94;100311.09;5028468;28;1222;-84
2023/07/15 00:32:13;;;;;;;;;;;;;;;20.86;55.79;100308.47;5025224;28;1845;-87
2023/07/15 00:34:39;;;;;;;;;;;;;;;20.87;56.10;100307.44;5024316;28;1126;-86
2023/07/15 00:37:10;;;;;;;;;;;;;;;20.87;55.78;100312.72;5023151;28;1367;-87
2023/07/15 00:39:45;;;;;;;;;;;;;;;20.85;55.11;100312.13;5024531;28;1508;-86
2023/07/15 00:42:25;;;;;;;;;;;;;;;20.85;55.62;100309.47;5021378;28;1284;-85
2023/07/15 00:44:53;;;;;;;;;;;;;;;20.86;55.33;100311.09;5022509;28;1958;-87
2023/07/15 00:47:30;;;;;;;;;;;;;;;20.86;54.41;100321.63;5024702;28;1173;-85
2023/07/15 00:50:08;;;;;;;;;;;;;;;;;;;;;
2023/07/15 00:52:43;;;;;;;;;;;;;;;20.89;54.95;100321.25;5048622;28;1145;-86
2023/07/15 00:55:19;;;;;;;;;;;;;;;20.88;54.78;100317.00;5045169;28;963;-86
2023/07/15 00:58:00;;;;;;;;;;;;;;;20.89;55.19;100315.97;5023921;28;1800;-86
2023/07/15 01:00:29;;;;;;;;;;;;;;;20.88;54.40;100315.16;5043620;28;992;-86
2023/07/15 01:03:00;;;;;;;;;;;;;;;20.91;54.76;100319.19;5032178;28;1269;-86
2023/07/15 01:05:26;;;;;;;;;;;;;;;20.91;54.72;100319.19;5045177;28;1902;-83
2023/07/15 01:08:03;;;;;;;;;;;;;;;20.98;54.77;100330.53;5025584;28;1354;-86
2023/07/15 01:10:28;;;;;;;;;;;;;;;21.03;54.87;100325.47;5028387;28;1296;-84
2023/07/15 01:12:56;;;;;;;;;;;;;;;21.06;54.25;100324.25;5020888;28;1134;-86
2023/07/15 01:15:24;;;;;;;;;;;;;;;21.07;53.74;100331.97;5047101;28;1220;-86
2023/07/15 01:17:49;;;;;;;;;;;;;;;21.13;53.82;100328.50;5046916;28;1259;-86
2023/07/15 01:20:24;;;;;;;;;;;;;;;21.25;53.51;100330.50;5028232;28;1216;-85
2023/07/15 01:22:52;;;;;;;;;;;;;;;21.29;53.03;100326.44;5042446;28;983;-86
2023/07/15 01:25:26;;;;;;;;;;;;;;;21.31;52.73;100322.59;5048713;28;1967;-84
2023/07/15 01:27:51;;;;;;;;;;;;;;;21.31;52.81;100324.44;5052871;28;1096;-84
2023/07/15 01:30:16;;;;;;;;;;;;;;;21.31;53.04;100324.44;5031450;28;1177;-86
2023/07/15 01:32:57;;;;;;;;;;;;;;;21.30;52.47;100322.81;5037712;28;1241;-86
2023/07/15 01:35:25;;;;;;;;;;;;;;;21.28;52.85;100330.91;5050098;28;1114;-85
2023/07/15 01:37:56;;;;;;;;;;;;;;;21.25;52.53;100333.13;5031204;28;1159;-86
2023/07/15 01:40:21;;;;;;;;;;;;;;;21.25;53.02;100325.22;5031198;28;1391;-85
2023/07/15 01:42:50;;;;;;;;;;;;;;;21.23;52.50;100332.53;5040161;28;1083;-84
2023/07/15 01:45:18;;;;;;;;;;;;;;;21.20;52.52;100331.91;5027329;28;1894;-86
2023/07/15 01:47:55;;;;;;;;;;;;;;;21.17;52.64;100327.06;5026586;28;1240;-85
2023/07/15 01:50:21;;;;;;;;;;;;;;;21.14;53.00;100327.47;5042815;28;1083;-84
2023/07/15 01:52:52;;;;;;;;;;;;;;;21.11;52.55;100330.53;5026658;28;1307;-86
2023/07/15 01:55:24;;;;;;;;;;;;;;;21.09;52.91;100337.81;5027887;28;1184;-86
2023/07/15 01:57:51;;;;;;;;;;;;;;;21.08;53.03;100341.47;5035760;28;1138;-85
2023/07/15 02:00:20;;;;;;;;;;;;;;;21.05;52.76;100336.63;5026062;28;1317;-85
2023/07/15 02:03:17;;;;;;;;;;;;;;;21.02;52.74;100341.50;5030744;28;1560;-85
2023/07/15 02:06:02;;;;;;;;;;;;;;;20.99;52.86;100337.47;5034382;28;1969;-86
2023/07/15 02:08:45;;;;;;;;;;;;;;;20.98;52.69;100346.38;5026636;28;1283;-85
2023/07/15 02:11:13;;;;;;;;;;;;;;;20.97;53.27;100350.03;5046013;28;1560;-87
2023/07/15 02:13:39;;;;;;;;;;;;;;;20.96;52.79;100351.03;5046751;28;1050;-86
2023/07/15 02:16:21;;;;;;;;;;;;;;;20.95;53.14;100357.34;5033474;28;1332;-86
2023/07/15 02:18:48;;;;;;;;;;;;;;;20.95;53.04;100359.97;5048564;28;986;-85
2023/07/15 02:21:19;;;;;;;;;;;;;;;20.93;53.14;100351.44;5049226;28;968;-85
2023/07/15 02:23:44;;;;;;;;;;;;;;;20.92;52.90;100349.81;5048718;28;1025;-86
2023/07/15 02:26:10;;;;;;;;;;;;;;;20.93;52.84;100354.06;5053026;28;1918;-87
2023/07/15 02:28:40;;;;;;;;;;;;;;;20.90;52.90;100354.50;5050937;28;1095;-86
2023/07/15 02:31:05;;;;;;;;;;;;;;;20.88;53.11;100356.53;5032168;28;1310;-86
2023/07/15 02:33:35;;;;;;;;;;;;;;;20.85;53.15;100362.19;5044121;28;1093;-86
2023/07/15 02:36:03;;;;;;;;;;;;;;;20.82;52.77;100352.88;5027869;28;1261;-85
2023/07/15 02:38:29;;;;;;;;;;;;;;;20.81;53.16;100360.97;5030937;28;1302;-85
2023/07/15 02:41:31;;;;;;;;;;;;;;;20.78;53.41;100351.66;5046397;28;1156;-85
2023/07/15 02:43:59;;;;;;;;;;;;;;;20.76;53.46;100366.03;5013363;28;1419;-87
2023/07/15 02:46:30;;;;;;;;;;;;;;;20.73;53.61;100353.28;5047723;28;1989;-86
2023/07/15 02:51:49;;;;;;;;;;;;;;;20.65;53.81;100360.38;5031485;28;1215;-87
2023/07/15 02:54:14;;;;;;;;;;;;;;;20.62;53.60;100363.41;5044362;28;976;-86
2023/07/15 02:56:56;;;;;;;;;;;;;;;20.60;53.91;100354.09;5046475;28;1165;-86
2023/07/15 02:59:38;;;;;;;;;;;;;;;20.56;53.84;100356.31;5044873;28;1059;-86
2023/07/15 03:02:18;;;;;;;;;;;;;;;20.53;54.08;100359.38;5053147;28;996;-86
2023/07/15 03:04:47;;;;;;;;;;;;;;;20.50;54.18;100357.13;5048185;28;1968;-85
2023/07/15 03:07:15;;;;;;;;;;;;;;;20.47;54.12;100354.06;5031171;28;1201;-84
2023/07/15 03:10:10;;;;;;;;;;;;;;;20.44;54.37;100360.53;5033296;28;1204;-86
2023/07/15 03:12:54;;;;;;;;;;;;;;;;;;;;;
2023/07/15 03:15:20;;;;;;;;;;;;;;;20.39;54.59;100349.78;4999928;28;1054;-85
2023/07/15 03:17:51;;;;;;;;;;;;;;;20.34;54.67;100350.38;5042735;28;1268;-87
2023/07/15 03:20:54;;;;;;;;;;;;;;;;;;;;;
2023/07/15 03:23:27;;;;;;;;;;;;;;;20.28;54.84;100339.84;5039793;28;1022;-86
2023/07/15 03:25:55;;;;;;;;;;;;;;;20.26;54.94;100347.94;5037430;28;1930;-86
2023/07/15 03:28:32;;;;;;;;;;;;;;;20.26;54.88;100362.94;5023569;28;1170;-86
2023/07/15 03:30:59;;;;;;;;;;;;;;;20.23;54.97;100358.06;5048685;28;1113;-85
2023/07/15 03:33:25;;;;;;;;;;;;;;;20.22;55.05;100356.44;5029268;28;1279;-85
2023/07/15 03:35:50;;;;;;;;;;;;;;;20.19;55.09;100359.50;5031770;28;1230;-85
2023/07/15 03:38:15;;;;;;;;;;;;;;;20.13;55.34;100354.00;5040446;28;1104;-85
2023/07/15 03:40:41;;;;;;;;;;;;;;;20.12;55.47;100354.19;5047495;28;1024;-86
2023/07/15 03:43:06;;;;;;;;;;;;;;;20.08;55.41;100351.16;5025819;28;1180;-85
2023/07/15 03:45:46;;;;;;;;;;;;;;;20.03;55.82;100353.56;5026888;28;1943;-85
2023/07/15 03:48:42;;;;;;;;;;;;;;;;;;;;;
2023/07/15 03:51:12;;;;;;;;;;;;;;;19.97;55.81;100354.38;5045053;28;938;-86
2023/07/15 03:53:40;;;;;;;;;;;;;;;19.94;55.83;100360.00;5046007;28;1082;-86
2023/07/15 03:56:26;;;;;;;;;;;;;;;19.92;55.96;100348.06;5026069;28;1220;-86
2023/07/15 03:58:59;;;;;;;;;;;;;;;19.89;56.11;100346.63;5026508;28;1336;-86
2023/07/15 04:01:48;;;;;;;;;;;;;;;;;;;;;
2023/07/15 04:04:16;;;;;;;;;;;;;;;19.85;56.41;100345.41;5035613;28;896;-86
2023/07/15 04:06:46;;;;;;;;;;;;;;;19.83;56.49;100347.41;5048243;28;1983;-85
2023/07/15 04:09:38;;;;;;;;;;;;;;;19.81;56.49;100354.72;5030114;28;1315;-86
2023/07/15 04:12:05;;;;;;;;;;;;;;;19.78;56.75;100355.09;5044861;28;1290;-86
2023/07/15 04:14:30;;;;;;;;;;;;;;;19.76;56.49;100349.22;5041313;28;1232;-85
2023/07/15 04:17:03;;;;;;;;;;;;;;;19.72;56.61;100350.63;5033299;28;1326;-85
2023/07/15 04:19:35;;;;;;;;;;;;;;;19.69;57.02;100356.28;5032347;28;1051;-86
2023/07/15 04:22:00;;;;;;;;;;;;;;;19.64;57.25;100348.97;5044990;28;1030;-85
2023/07/15 04:24:28;;;;;;;;;;;;;;;19.60;57.41;100348.53;5053226;28;1118;-86
2023/07/15 04:26:54;;;;;;;;;;;;;;;19.57;57.20;100348.91;5028996;28;1398;-85
2023/07/15 04:29:44;;;;;;;;;;;;;;;19.56;57.38;100352.56;5049147;28;1165;-86
2023/07/15 04:32:29;;;;;;;;;;;;;;;19.50;57.70;100358.59;5027523;28;1387;-85
2023/07/15 04:35:07;;;;;;;;;;;;;;;;;;;;;
2023/07/15 04:37:43;;;;;;;;;;;;;;;19.44;57.86;100359.38;5052425;28;995;-86
2023/07/15 04:43:23;;;;;;;;;;;;;;;;;;;;;
2023/07/15 04:46:17;;;;;;;;;;;;;;;19.39;58.29;100367.03;5051332;28;1898;-85
2023/07/15 04:49:25;;;;;;;;;;;;;;;19.38;58.24;100365.38;5025502;28;1209;-85
2023/07/15 04:54:49;;;;;;;;;;;;;;;19.39;58.73;100372.31;4992249;28;1188;-86
2023/07/15 04:57:16;;;;;;;;;;;;;;;19.41;58.94;100380.78;4989443;28;1490;-85
2023/07/15 05:00:10;;;;;;;;;;;;;;;19.44;58.90;100374.31;4986947;28;1312;-86
2023/07/15 05:03:01;;;;;;;;;;;;;;;19.48;59.35;100375.56;5004407;28;1186;-86
2023/07/15 05:05:47;;;;;;;;;;;;;;;19.50;59.50;100374.38;4980972;28;1960;-85
2023/07/15 05:08:20;;;;;;;;;;;;;;;19.52;59.76;100372.34;4990887;28;1079;-84
2023/07/15 05:11:07;;;;;;;;;;;;;;;;;;;;;
2023/07/15 05:13:52;;;;;;;;;;;;;;;19.56;59.81;100363.09;5002772;28;1012;-86
2023/07/15 05:16:17;;;;;;;;;;;;;;;19.59;59.98;100372.41;5015015;28;1633;-86
2023/07/15 05:18:46;;;;;;;;;;;;;;;19.61;59.89;100376.50;5059342;28;1051;-85
2023/07/15 05:21:24;;;;;;;;;;;;;;;19.65;59.93;100370.81;5032883;28;1207;-85
2023/07/15 05:24:16;;;;;;;;;;;;;;;19.67;59.99;100368.81;5034521;28;1389;-85
2023/07/15 05:26:41;;;;;;;;;;;;;;;19.70;59.76;100368.44;5055637;28;1898;-85
2023/07/15 05:29:09;;;;;;;;;;;;;;;19.71;59.81;100357.69;5030790;28;1264;-85
2023/07/15 05:34:54;;;;;;;;;;;;;;;19.79;60.14;100367.25;5037309;28;1194;-85
2023/07/15 05:38:10;;;;;;;;;;;;;;;19.85;60.36;100377.81;5043331;28;1302;-85
2023/07/15 05:40:42;;;;;;;;;;;;;;;19.92;60.29;100377.84;5050185;28;1417;-87
2023/07/15 05:43:18;;;;;;;;;;;;;;;19.97;60.31;100370.16;5027620;28;1353;-85
2023/07/15 05:45:46;;;;;;;;;;;;;;;20.03;60.66;100374.63;5030037;28;1906;-86
2023/07/15 05:48:13;;;;;;;;;;;;;;;20.10;61.00;100382.53;5026567;28;1327;-86
2023/07/15 05:50:45;;;;;;;;;;;;;;;20.15;60.80;100380.94;5026939;28;1101;-86
2023/07/15 05:53:13;;;;;;;;;;;;;;;20.25;61.18;100379.75;5030391;28;1248;-84
2023/07/15 05:56:04;;;;;;;;;;;;;;;20.33;61.35;100384.84;5031801;28;1338;-87
2023/07/15 05:58:32;;;;;;;;;;;;;;;20.43;61.95;100393.16;5045337;28;1035;-85
2023/07/15 06:00:57;;;;;;;;;;;;;;;20.51;62.08;100395.63;5028566;28;1356;-85
2023/07/15 06:04:06;;;;;;;;;;;;;;;20.57;62.14;100397.47;5033200;28;1176;-86
2023/07/15 06:06:32;;;;;;;;;;;;;;;20.66;62.52;100401.53;5030389;28;1929;-85
2023/07/15 06:08:57;;;;;;;;;;;;;;;20.73;62.60;100395.44;5020609;28;1188;-86
2023/07/15 06:11:25;;;;;;;;;;;;;;;20.77;61.31;100396.69;5034331;28;1319;-85
2023/07/15 06:13:50;;;;;;;;;;;;;;;20.82;61.25;100396.88;5049415;28;1115;-86
2023/07/15 06:16:16;;;;;;;;;;;;;;;20.85;61.93;100404.38;5034250;28;1534;-86
2023/07/15 06:18:47;;;;;;;;;;;;;;;20.90;62.71;100400.13;5031125;28;1255;-86
2023/07/15 06:21:12;;;;;;;;;;;;;;;20.99;63.49;100405.19;5048884;28;1201;-86
2023/07/15 06:23:55;;;;;;;;;;;;;;;21.06;63.56;100401.53;5029333;28;1247;-86
2023/07/15 06:26:21;;;;;;;;;;;;;;;21.14;62.98;100401.31;5044617;28;2077;-85
2023/07/15 06:28:46;;;;;;;;;;;;;;;21.24;64.00;100402.75;5031056;28;1029;-86
2023/07/15 06:31:11;;;;;;;;;;;;;;;21.31;63.57;100393.81;5027471;28;1341;-85
2023/07/15 06:33:37;;;;;;;;;;;;;;;21.38;63.01;100391.16;5030401;28;1339;-85
2023/07/15 06:36:06;;;;;;;;;;;;;;;21.47;63.82;100403.13;5025536;28;1295;-84
2023/07/15 06:38:32;;;;;;;;;;;;;;;21.55;63.41;100400.25;5033807;28;1231;-85
2023/07/15 06:40:57;;;;;;;;;;;;;;;21.63;63.56;100397.41;5031922;28;1410;-85
2023/07/15 06:43:25;;;;;;;;;;;;;;;21.71;62.99;100399.81;5028408;28;1307;-85
2023/07/15 06:46:00;;;;;;;;;;;;;;;21.81;61.75;100398.56;5028779;28;1902;-86
2023/07/15 06:48:31;;;;;;;;;;;;;;;21.87;64.18;100384.53;5026403;28;1383;-85
2023/07/15 06:50:56;;;;;;;;;;;;;;;21.94;63.53;100385.28;5028440;28;1196;-85
2023/07/15 06:53:22;;;;;;;;;;;;;;;22.01;63.93;100388.72;5027435;28;1439;-84
2023/07/15 06:55:47;;;;;;;;;;;;;;;22.08;64.51;100389.50;5046478;28;1086;-85
2023/07/15 06:58:15;;;;;;;;;;;;;;;22.17;64.12;100393.53;5031317;28;1180;-85
2023/07/15 07:00:41;;;;;;;;;;;;;;;22.25;63.54;100395.94;5029572;28;1302;-85
2023/07/15 07:03:06;;;;;;;;;;;;;;;22.34;63.69;100407.06;5052513;28;1167;-86
2023/07/15 07:05:31;;;;;;;;;;;;;;;22.41;63.84;100410.47;5048469;28;1898;-86
2023/07/15 07:07:56;;;;;;;;;;;;;;;22.49;63.88;100412.06;5037143;28;1196;-85
2023/07/15 07:10:21;;;;;;;;;;;;;;;22.52;63.98;100401.03;5045522;28;1119;-84
2023/07/15 07:12:46;;;;;;;;;;;;;;;22.58;64.77;100405.47;5046007;28;1036;-85
2023/07/15 07:15:12;;;;;;;;;;;;;;;22.65;64.14;100390.41;5030184;28;1203;-84
2023/07/15 07:17:37;;;;;;;;;;;;;;;22.72;63.87;100388.50;5044639;28;1238;-85
2023/07/15 07:20:05;;;;;;;;;;;;;;;22.82;64.40;100389.84;5029989;28;1311;-85
2023/07/15 07:22:31;;;;;;;;;;;;;;;22.89;63.40;100388.81;5049478;28;994;-86
2023/07/15 07:24:59;;;;;;;;;;;;;;;22.93;63.41;100394.44;5030467;28;1902;-85
2023/07/15 07:27:24;;;;;;;;;;;;;;;23.00;62.88;100400.50;5031226;28;1303;-86
2023/07/15 07:30:00;;;;;;;;;;;;;;;;;;;;;
2023/07/15 07:32:47;;;;;;;;;;;;;;;23.10;62.30;100407.94;5046715;28;920;-86
2023/07/15 07:35:22;;;;;;;;;;;;;;;23.15;62.65;100406.25;5034561;28;1710;-85
2023/07/15 07:37:48;;;;;;;;;;;;;;;23.22;63.15;100400.91;5031837;28;1244;-85
2023/07/15 07:40:20;;;;;;;;;;;;;;;23.37;62.54;100393.44;5048152;28;1390;-85
2023/07/15 07:43:04;;;;;;;;;;;;;;;;;;;;;
2023/07/15 07:45:30;;;;;;;;;;;;;;;23.65;62.15;100408.84;5049498;28;1902;-84
2023/07/15 07:48:01;;;;;;;;;;;;;;;23.81;61.62;100399.50;5043435;28;1098;-85
2023/07/15 07:50:32;;;;;;;;;;;;;;;24.00;61.15;100413.50;5049530;28;920;-84
2023/07/15 07:52:58;;;;;;;;;;;;;;;24.17;60.30;100403.91;5026437;28;1335;-84
2023/07/15 07:55:23;;;;;;;;;;;;;;;24.23;59.79;100412.81;5054507;28;986;-85
2023/07/15 07:57:48;;;;;;;;;;;;;;;24.25;60.26;100419.47;5033359;28;1329;-84
2023/07/15 08:00:14;;;;;;;;;;;;;;;24.27;60.61;100419.28;5034701;28;1199;-86
2023/07/15 08:02:42;;;;;;;;;;;;;;;24.33;60.26;100424.47;5051008;28;1135;-85
2023/07/15 08:05:08;;;;;;;;;;;;;;;24.38;59.64;100415.09;5037724;28;1878;-83
2023/07/15 08:07:33;;;;;;;;;;;;;;;24.31;59.69;100405.31;5026020;28;1363;-85
2023/07/15 08:09:58;;;;;;;;;;;;;;;24.32;59.90;100396.38;5044918;28;1142;-84
2023/07/15 08:12:24;;;;;;;;;;;;;;;24.36;60.11;100396.72;5048777;28;1100;-82
2023/07/15 08:14:49;;;;;;;;;;;;;;;24.39;60.21;100400.78;5026786;28;1078;-84
2023/07/15 08:17:14;;;;;;;;;;;;;;;24.40;59.87;100394.44;5026467;28;1211;-85
2023/07/15 08:19:39;;;;;;;;;;;;;;;24.38;59.93;100409.78;5039287;28;1152;-83
2023/07/15 08:22:04;;;;;;;;;;;;;;;24.35;59.92;100411.84;5042827;28;1231;-84
2023/07/15 08:24:30;;;;;;;;;;;;;;;24.33;60.19;100419.19;5030769;28;1243;-83
2023/07/15 08:26:55;;;;;;;;;;;;;;;24.34;60.46;100415.53;5024734;28;1963;-83
2023/07/15 08:29:20;;;;;;;;;;;;;;;24.41;60.34;100409.31;5045744;28;1192;-85
2023/07/15 08:31:46;;;;;;;;;;;;;;;24.43;60.12;100417.84;5028163;28;1307;-86
2023/07/15 08:34:12;;;;;;;;;;;;;;;24.43;60.80;100417.84;5030742;28;1366;-84
2023/07/15 08:36:37;;;;;;;;;;;;;;;24.43;60.61;100428.44;5026787;28;1188;-84
2023/07/15 08:39:02;;;;;;;;;;;;;;;24.45;60.77;100426.41;5021162;28;1560;-84
2023/07/15 08:41:28;;;;;;;;;;;;;;;24.51;60.68;100425.50;5041099;28;1168;-84
2023/07/15 08:43:53;;;;;;;;;;;;;;;24.61;61.29;100415.94;5031259;28;1207;-84
2023/07/15 08:46:28;;;;;;;;;;;;;;;24.68;60.60;100426.44;5043837;28;1913;-83
2023/07/15 08:48:54;;;;;;;;;;;;;;;24.72;60.41;100432.94;5024267;28;1260;-84
2023/07/15 08:51:21;;;;;;;;;;;;;;;24.77;59.86;100434.88;5027924;28;1364;-83
2023/07/15 08:53:46;;;;;;;;;;;;;;;24.69;60.60;100436.03;5028883;28;1355;-84
2023/07/15 08:56:12;;;;;;;;;;;;;;;24.74;60.72;100436.16;5026543;28;1263;-83
2023/07/15 08:58:38;;;;;;;;;;;;;;;24.77;59.94;100434.88;5039517;28;1101;-83
2023/07/15 09:01:03;;;;;;;;;;;;;;;24.80;60.00;100445.84;5026567;28;1342;-85
2023/07/15 09:03:28;;;;;;;;;;;;;;;24.81;59.33;100452.75;5042777;28;1219;-82
2023/07/15 09:05:53;;;;;;;;;;;;;;;24.78;59.34;100458.53;5045206;28;1961;-86
2023/07/15 09:08:18;;;;;;;;;;;;;;;24.70;59.08;100460.69;5041958;28;1290;-85
2023/07/15 09:11:10;;;;;;;;;;;;;;;24.60;59.09;100453.28;5046595;28;1114;-84
2023/07/15 09:13:35;;;;;;;;;;;;;;;24.52;59.31;100464.22;5020421;28;1181;-85
2023/07/15 09:16:01;;;;;;;;;;;;;;;24.51;59.68;100465.25;5044785;28;1169;-83
2023/07/15 09:18:27;;;;;;;;;;;;;;;24.47;59.43;100466.72;5047481;28;1065;-83
2023/07/15 09:21:06;;;;;;;;;;;;;;;24.45;59.56;100479.41;5024876;28;1381;-83
2023/07/15 09:23:31;;;;;;;;;;;;;;;24.39;59.76;100480.31;5023681;28;1295;-82
2023/07/15 09:26:00;;;;;;;;;;;;;;;24.31;60.02;100474.25;5042868;28;1906;-83
2023/07/15 09:28:25;;;;;;;;;;;;;;;24.25;59.99;100469.84;5050577;28;1107;-83
2023/07/15 09:30:51;;;;;;;;;;;;;;;24.21;59.96;100475.84;5045466;28;1123;-83
2023/07/15 09:33:29;;;;;;;;;;;;;;;24.21;60.31;100476.63;5042343;28;1104;-83
2023/07/15 09:35:54;;;;;;;;;;;;;;;24.21;60.45;100476.63;5029458;28;1507;-83
2023/07/15 09:38:20;;;;;;;;;;;;;;;24.24;60.69;100475.38;5021905;28;1208;-83
2023/07/15 09:40:45;;;;;;;;;;;;;;;24.32;60.98;100462.63;5029198;28;1286;-83
2023/07/15 09:43:11;;;;;;;;;;;;;;;24.43;60.79;100481.47;5041688;28;1500;-82
2023/07/15 09:45:40;;;;;;;;;;;;;;;24.53;60.28;100479.09;5032668;28;1913;-84
2023/07/15 09:48:06;;;;;;;;;;;;;;;24.53;59.75;100481.75;5030861;28;1302;-83
2023/07/15 09:50:33;;;;;;;;;;;;;;;24.55;60.21;100474.38;5049140;28;1322;-83
2023/07/15 09:52:59;;;;;;;;;;;;;;;24.56;60.01;100478.66;5029343;28;1248;-84
2023/07/15 09:55:40;;;;;;;;;;;;;;;24.51;59.80;100475.88;5031357;28;1570;-82
2023/07/15 09:58:22;;;;;;;;;;;;;;;24.49;59.99;100477.94;5048309;28;1174;-84
2023/07/15 10:00:52;;;;;;;;;;;;;;;24.44;59.89;100475.16;5030784;28;1264;-83
2023/07/15 10:03:20;;;;;;;;;;;;;;;24.31;59.19;100484.84;5027571;28;1185;-84
2023/07/15 10:05:46;;;;;;;;;;;;;;;24.23;59.56;100498.41;5047453;28;1903;-83
2023/07/15 10:08:12;;;;;;;;;;;;;;;24.16;59.54;100497.69;5029005;28;1042;-84
2023/07/15 10:10:38;;;;;;;;;;;;;;;24.08;58.16;100496.13;5030863;28;1355;-85
2023/07/15 10:13:03;;;;;;;;;;;;;;;24.00;59.23;100508.88;5026282;28;1339;-83
2023/07/15 10:15:29;;;;;;;;;;;;;;;23.94;58.85;100504.47;5029245;28;1290;-85
2023/07/15 10:17:54;;;;;;;;;;;;;;;23.86;58.67;100502.94;5048454;28;1010;-82
2023/07/15 10:20:20;;;;;;;;;;;;;;;23.80;59.02;100494.03;5049595;28;1056;-85
2023/07/15 10:22:45;;;;;;;;;;;;;;;23.76;58.93;100506.09;5026926;28;1342;-83
2023/07/15 10:25:11;;;;;;;;;;;;;;;23.75;59.34;100509.75;5043579;28;1906;-82
2023/07/15 10:27:37;;;;;;;;;;;;;;;23.59;60.38;100491.75;5042473;28;1203;-83
2023/07/15 10:30:18;;;;;;;;;;;;;;;23.49;60.82;100494.09;5024304;28;1228;-83
2023/07/15 10:33:08;;;;;;;;;;;;;;;23.37;61.42;100493.19;5041674;28;949;-83
2023/07/15 10:35:34;;;;;;;;;;;;;;;23.31;61.77;100490.38;5047491;28;1027;-84
2023/07/15 10:38:18;;;;;;;;;;;;;;;23.26;61.73;100482.28;5044289;28;1158;-82
2023/07/15 10:40:46;;;;;;;;;;;;;;;23.21;62.48;100474.19;5052630;28;964;-83
2023/07/15 10:43:11;;;;;;;;;;;;;;;23.16;63.26;100468.72;5025213;28;1301;-83
2023/07/15 10:45:43;;;;;;;;;;;;;;;23.07;63.17;100456.81;5047419;28;1893;-82
2023/07/15 10:48:08;;;;;;;;;;;;;;;23.00;63.06;100461.34;5048975;28;1083;-84
2023/07/15 10:50:35;;;;;;;;;;;;;;;22.97;63.71;100461.78;5030029;28;1180;-83
2023/07/15 10:53:22;;;;;;;;;;;;;;;22.93;63.48;100465.84;5033576;28;1267;-83
2023/07/15 10:56:01;;;;;;;;;;;;;;;22.89;63.29;100469.97;5034497;28;1327;-84
2023/07/15 10:58:27;;;;;;;;;;;;;;;22.89;63.60;100465.50;5044505;28;983;-82
2023/07/15 11:01:02;;;;;;;;;;;;;;;22.97;63.66;100461.78;5048078;28;968;-84
2023/07/15 11:03:28;;;;;;;;;;;;;;;23.08;63.13;100453.13;5044061;28;1198;-83
2023/07/15 11:05:54;;;;;;;;;;;;;;;23.15;63.06;100458.38;5026894;28;1898;-84
2023/07/15 11:08:19;;;;;;;;;;;;;;;23.21;62.84;100468.88;5047681;28;1277;-83
2023/07/15 11:10:45;;;;;;;;;;;;;;;23.26;62.74;100466.41;5029758;28;1161;-81
2023/07/15 11:13:14;;;;;;;;;;;;;;;23.30;62.55;100477.38;5051345;28;1083;-82
2023/07/15 11:15:39;;;;;;;;;;;;;;;23.36;61.80;100481.00;5041063;28;1223;-83
2023/07/15 11:18:21;;;;;;;;;;;;;;;23.37;61.98;100477.31;5046959;28;1066;-83
2023/07/15 11:20:47;;;;;;;;;;;;;;;23.35;61.86;100479.38;5024428;28;1190;-84
2023/07/15 11:23:13;;;;;;;;;;;;;;;23.30;61.80;100467.59;5042512;28;1101;-84
2023/07/15 11:25:39;;;;;;;;;;;;;;;23.27;62.24;100470.66;5028290;28;1975;-84
2023/07/15 11:28:05;;;;;;;;;;;;;;;23.23;61.62;100466.84;5023624;28;1529;-83
2023/07/15 11:30:36;;;;;;;;;;;;;;;23.23;61.43;100460.75;5024532;28;1038;-84
2023/07/15 11:33:03;;;;;;;;;;;;;;;23.21;61.64;100463.59;5027286;28;1477;-83
2023/07/15 11:35:32;;;;;;;;;;;;;;;23.24;61.42;100457.06;5032250;28;1243;-84
2023/07/15 11:37:57;;;;;;;;;;;;;;;23.27;61.34;100460.06;5047713;28;1197;-83
2023/07/15 11:40:23;;;;;;;;;;;;;;;23.30;61.44;100462.31;5032230;28;1295;-83
2023/07/15 11:42:48;;;;;;;;;;;;;;;23.36;61.46;100465.13;5030770;28;1342;-82
2023/07/15 11:45:13;;;;;;;;;;;;;;;23.47;61.80;100461.75;5044886;28;1910;-84
2023/07/15 11:47:40;;;;;;;;;;;;;;;23.69;61.70;100462.97;5033984;28;1567;-84
2023/07/15 11:50:10;;;;;;;;;;;;;;;23.93;60.84;100440.09;5042254;28;1250;-84
2023/07/15 11:52:42;;;;;;;;;;;;;;;24.10;60.86;100440.28;5031070;28;1175;-83
2023/07/15 11:55:07;;;;;;;;;;;;;;;24.20;59.94;100440.56;5021878;28;1177;-84
2023/07/15 11:57:33;;;;;;;;;;;;;;;24.32;60.05;100438.78;5029005;28;1391;-83
2023/07/15 12:00:01;;;;;;;;;;;;;;;24.50;59.95;100439.78;5029214;28;1220;-84
2023/07/15 12:02:28;;;;;;;;;;;;;;;24.63;59.54;100423.66;5042168;28;1109;-83
2023/07/15 12:04:54;;;;;;;;;;;;;;;24.73;58.91;100423.94;5021128;28;1980;-85
2023/07/15 12:07:19;;;;;;;;;;;;;;;24.82;58.44;100422.53;5026087;28;1213;-85
2023/07/15 12:09:45;;;;;;;;;;;;;;;24.77;57.94;100414.44;5049168;28;1316;-84
2023/07/15 12:12:10;;;;;;;;;;;;;;;24.83;57.93;100402.97;5046626;28;1102;-83
2023/07/15 12:14:36;;;;;;;;;;;;;;;24.82;57.56;100411.13;5024733;28;1156;-84
2023/07/15 12:17:02;;;;;;;;;;;;;;;24.83;56.74;100405.59;5031421;28;1228;-83
2023/07/15 12:19:29;;;;;;;;;;;;;;;24.84;57.03;100404.56;5046213;28;1036;-84
2023/07/15 12:21:54;;;;;;;;;;;;;;;24.87;55.56;100408.59;5043084;28;1175;-85
2023/07/15 12:24:20;;;;;;;;;;;;;;;24.90;55.14;100408.97;5029612;28;1320;-84
2023/07/15 12:26:46;;;;;;;;;;;;;;;24.96;55.00;100406.41;5027272;28;1985;-84
2023/07/15 12:29:11;;;;;;;;;;;;;;;24.94;55.26;100408.47;5047155;28;1240;-83
2023/07/15 12:31:36;;;;;;;;;;;;;;;24.96;55.28;100411.72;5025860;28;1314;-84
2023/07/15 12:34:05;;;;;;;;;;;;;;;24.94;54.92;100397.88;5024045;28;1167;-83
2023/07/15 12:36:30;;;;;;;;;;;;;;;24.96;55.64;100409.06;5022527;28;1296;-84
2023/07/15 12:38:55;;;;;;;;;;;;;;;25.02;55.30;100416.13;5052756;28;1258;-84
2023/07/15 12:41:21;;;;;;;;;;;;;;;25.11;55.22;100414.75;5045035;28;1507;-85
2023/07/15 12:43:46;;;;;;;;;;;;;;;25.14;54.72;100409.00;5028158;28;1368;-84
2023/07/15 12:46:11;;;;;;;;;;;;;;;25.16;55.31;100404.25;5034440;28;1963;-84
2023/07/15 12:48:37;;;;;;;;;;;;;;;25.09;54.75;100411.53;5050416;28;1026;-83
2023/07/15 12:51:02;;;;;;;;;;;;;;;25.05;55.08;100402.38;5044351;28;1133;-83
2023/07/15 12:53:27;;;;;;;;;;;;;;;25.01;55.05;100399.38;5043864;28;1010;-85
2023/07/15 12:55:55;;;;;;;;;;;;;;;25.01;55.45;100414.50;5029541;28;1462;-83
2023/07/15 12:58:21;;;;;;;;;;;;;;;25.01;54.99;100409.19;5041757;28;949;-83
2023/07/15 13:00:47;;;;;;;;;;;;;;;25.00;55.46;100412.88;5046697;28;1130;-84
2023/07/15 13:03:12;;;;;;;;;;;;;;;25.00;55.24;100402.25;5045341;28;1081;-83
2023/07/15 13:05:38;;;;;;;;;;;;;;;25.02;55.33;100416.13;5044589;28;1890;-84
2023/07/15 13:08:03;;;;;;;;;;;;;;;25.10;55.00;100403.31;5045687;28;1118;-84
2023/07/15 13:10:31;;;;;;;;;;;;;;;25.30;55.29;100426.06;5043400;28;1093;-82
2023/07/15 13:12:57;;;;;;;;;;;;;;;25.46;54.85;100401.44;5021415;28;1441;-84
2023/07/15 13:15:22;;;;;;;;;;;;;;;25.56;54.72;100414.13;5043690;28;1253;-84
2023/07/15 13:17:47;;;;;;;;;;;;;;;25.68;55.05;100412.25;5046620;28;1248;-84
2023/07/15 13:20:13;;;;;;;;;;;;;;;25.76;53.41;100417.25;5029712;28;1360;-84
2023/07/15 13:22:39;;;;;;;;;;;;;;;25.71;53.43;100409.16;5027515;28;1120;-84
2023/07/15 13:25:05;;;;;;;;;;;;;;;25.62;53.56;100405.22;5024374;28;1910;-83
2023/07/15 13:27:31;;;;;;;;;;;;;;;25.59;53.81;100403.06;5027128;28;1422;-84